sensor_id;sensor_type;location;lat;lon;timestamp;pressure;altitude;pressure_sealevel;temperature;humidity
62524;BME280;53689;56.878;60.672;2023-04-28T00:02:02;97485.28;;;24.88;25.62
62524;BME280;53689;56.878;60.672;2023-04-28T00:04:30;97487.88;;;24.95;25.57
62524;BME280;53689;56.878;60.672;2023-04-28T00:06:58;97489.75;;;24.94;24.92
62524;BME280;53689;56.878;60.672;2023-04-28T00:09:25;97487.75;;;24.90;25.13
62524;BME280;53689;56.878;60.672;2023-04-28T00:11:53;97485.88;;;24.90;25.12
62524;BME280;53689;56.878;60.672;2023-04-28T00:14:22;97485.97;;;24.96;25.26
62524;BME280;53689;56.878;60.672;2023-04-28T00:16:49;97484.34;;;24.94;25.28
62524;BME280;53689;56.878;60.672;2023-04-28T00:19:17;97492.34;;;24.89;24.94
62524;BME280;53689;56.878;60.672;2023-04-28T00:21:45;97494.00;;;24.90;25.79
62524;BME280;53689;56.878;60.672;2023-04-28T00:24:12;97492.94;;;24.91;25.12
62524;BME280;53689;56.878;60.672;2023-04-28T00:26:40;97489.53;;;24.84;25.36
62524;BME280;53689;56.878;60.672;2023-04-28T00:29:08;97495.75;;;24.85;25.63
62524;BME280;53689;56.878;60.672;2023-04-28T00:31:37;97493.06;;;24.85;25.62
62524;BME280;53689;56.878;60.672;2023-04-28T00:34:04;97496.81;;;24.84;25.44
62524;BME280;53689;56.878;60.672;2023-04-28T00:36:32;97497.31;;;24.80;25.45
62524;BME280;53689;56.878;60.672;2023-04-28T00:38:59;97499.53;;;24.84;25.51
62524;BME280;53689;56.878;60.672;2023-04-28T00:41:27;97495.75;;;24.85;25.93
62524;BME280;53689;56.878;60.672;2023-04-28T00:43:55;97497.19;;;24.87;25.51
62524;BME280;53689;56.878;60.672;2023-04-28T00:46:24;97501.06;;;24.79;26.18
62524;BME280;53689;56.878;60.672;2023-04-28T00:48:54;97509.31;;;23.94;27.18
62524;BME280;53689;56.878;60.672;2023-04-28T00:51:22;97516.97;;;23.55;27.87
62524;BME280;53689;56.878;60.672;2023-04-28T00:53:51;97514.44;;;23.41;28.42
62524;BME280;53689;56.878;60.672;2023-04-28T00:56:19;97522.31;;;23.43;28.69
62524;BME280;53689;56.878;60.672;2023-04-28T00:58:46;97514.28;;;23.18;28.77
62524;BME280;53689;56.878;60.672;2023-04-28T01:01:14;97522.75;;;23.21;29.75
62524;BME280;53689;56.878;60.672;2023-04-28T01:03:41;97526.56;;;23.13;29.77
62524;BME280;53689;56.878;60.672;2023-04-28T01:06:11;97522.97;;;23.20;29.56
62524;BME280;53689;56.878;60.672;2023-04-28T01:08:39;97524.50;;;23.16;29.54
62524;BME280;53689;56.878;60.672;2023-04-28T01:11:13;97520.88;;;23.22;29.46
62524;BME280;53689;56.878;60.672;2023-04-28T01:14:01;97530.34;;;23.31;29.24
62524;BME280;53689;56.878;60.672;2023-04-28T01:16:33;97536.56;;;23.50;29.16
62524;BME280;53689;56.878;60.672;2023-04-28T01:19:02;97539.25;;;23.50;29.51
62524;BME280;53689;56.878;60.672;2023-04-28T01:21:34;97548.19;;;23.32;29.74
62524;BME280;53689;56.878;60.672;2023-04-28T01:24:29;97548.56;;;23.36;29.76
62524;BME280;53689;56.878;60.672;2023-04-28T01:27:01;97549.50;;;23.30;29.45
62524;BME280;53689;56.878;60.672;2023-04-28T01:29:29;97547.44;;;23.25;29.31
62524;BME280;53689;56.878;60.672;2023-04-28T01:31:56;97543.53;;;23.21;29.12
62524;BME280;53689;56.878;60.672;2023-04-28T01:34:24;97550.06;;;23.13;29.07
62524;BME280;53689;56.878;60.672;2023-04-28T01:36:52;97564.84;;;23.10;28.99
62524;BME280;53689;56.878;60.672;2023-04-28T01:39:19;97564.16;;;23.15;29.14
62524;BME280;53689;56.878;60.672;2023-04-28T01:41:48;97567.53;;;23.10;29.51
62524;BME280;53689;56.878;60.672;2023-04-28T01:44:16;97566.09;;;23.08;29.40
62524;BME280;53689;56.878;60.672;2023-04-28T01:46:47;97569.56;;;22.96;29.36
62524;BME280;53689;56.878;60.672;2023-04-28T01:49:15;97568.44;;;23.04;29.60
62524;BME280;53689;56.878;60.672;2023-04-28T01:51:43;97570.91;;;23.06;29.12
62524;BME280;53689;56.878;60.672;2023-04-28T01:54:11;97569.94;;;23.00;29.49
62524;BME280;53689;56.878;60.672;2023-04-28T01:56:39;97575.13;;;23.02;29.26
62524;BME280;53689;56.878;60.672;2023-04-28T01:59:08;97576.97;;;23.01;29.92
62524;BME280;53689;56.878;60.672;2023-04-28T02:01:36;97578.88;;;23.00;29.33
62524;BME280;53689;56.878;60.672;2023-04-28T02:04:04;97586.28;;;22.86;29.57
62524;BME280;53689;56.878;60.672;2023-04-28T02:06:35;97585.09;;;23.01;29.29
62524;BME280;53689;56.878;60.672;2023-04-28T02:09:03;97588.66;;;22.95;29.80
62524;BME280;53689;56.878;60.672;2023-04-28T02:11:32;97591.06;;;22.84;30.12
62524;BME280;53689;56.878;60.672;2023-04-28T02:14:00;97596.59;;;22.71;30.30
62524;BME280;53689;56.878;60.672;2023-04-28T02:16:29;97585.94;;;22.76;30.21
62524;BME280;53689;56.878;60.672;2023-04-28T02:18:56;97599.41;;;22.57;30.83
62524;BME280;53689;56.878;60.672;2023-04-28T02:21:27;97601.06;;;22.58;30.38
62524;BME280;53689;56.878;60.672;2023-04-28T02:23:54;97610.53;;;22.68;30.65
62524;BME280;53689;56.878;60.672;2023-04-28T02:26:23;97607.19;;;22.66;30.08
62524;BME280;53689;56.878;60.672;2023-04-28T02:28:51;97609.69;;;22.67;30.42
62524;BME280;53689;56.878;60.672;2023-04-28T02:31:18;97622.06;;;22.50;31.38
62524;BME280;53689;56.878;60.672;2023-04-28T02:33:47;97621.50;;;22.41;31.80
62524;BME280;53689;56.878;60.672;2023-04-28T02:36:15;97621.88;;;22.44;31.28
62524;BME280;53689;56.878;60.672;2023-04-28T02:38:43;97629.94;;;22.51;31.36
62524;BME280;53689;56.878;60.672;2023-04-28T02:41:10;97634.97;;;22.73;31.42
62524;BME280;53689;56.878;60.672;2023-04-28T02:43:38;97636.28;;;22.31;32.55
62524;BME280;53689;56.878;60.672;2023-04-28T02:46:06;97637.25;;;22.12;33.07
62524;BME280;53689;56.878;60.672;2023-04-28T02:48:35;97644.31;;;22.38;32.04
62524;BME280;53689;56.878;60.672;2023-04-28T02:51:04;97657.81;;;21.99;33.13
62524;BME280;53689;56.878;60.672;2023-04-28T02:53:33;97656.06;;;22.57;31.63
62524;BME280;53689;56.878;60.672;2023-04-28T02:56:01;97659.16;;;22.22;32.51
62524;BME280;53689;56.878;60.672;2023-04-28T02:58:29;97661.78;;;22.68;31.43
62524;BME280;53689;56.878;60.672;2023-04-28T03:00:56;97664.56;;;22.54;32.06
62524;BME280;53689;56.878;60.672;2023-04-28T03:03:24;97662.47;;;22.56;32.09
62524;BME280;53689;56.878;60.672;2023-04-28T03:05:52;97671.16;;;22.26;32.35
62524;BME280;53689;56.878;60.672;2023-04-28T03:08:21;97670.81;;;22.48;31.63
62524;BME280;53689;56.878;60.672;2023-04-28T03:10:49;97674.72;;;22.20;32.64
62524;BME280;53689;56.878;60.672;2023-04-28T03:13:17;97681.41;;;22.11;33.01
62524;BME280;53689;56.878;60.672;2023-04-28T03:15:45;97682.66;;;22.08;33.62
62524;BME280;53689;56.878;60.672;2023-04-28T03:18:13;97684.44;;;21.82;33.58
62524;BME280;53689;56.878;60.672;2023-04-28T03:20:40;97687.56;;;22.25;33.01
62524;BME280;53689;56.878;60.672;2023-04-28T03:23:08;97691.06;;;22.25;33.29
62524;BME280;53689;56.878;60.672;2023-04-28T03:25:37;97692.66;;;22.01;34.15
62524;BME280;53689;56.878;60.672;2023-04-28T03:28:05;97700.56;;;21.89;34.17
62524;BME280;53689;56.878;60.672;2023-04-28T03:30:33;97701.06;;;21.72;34.60
62524;BME280;53689;56.878;60.672;2023-04-28T03:33:01;97709.06;;;21.93;34.28
62524;BME280;53689;56.878;60.672;2023-04-28T03:35:28;97707.09;;;21.68;34.67
62524;BME280;53689;56.878;60.672;2023-04-28T03:37:56;97710.94;;;21.92;34.16
62524;BME280;53689;56.878;60.672;2023-04-28T03:40:24;97714.34;;;22.20;33.83
62524;BME280;53689;56.878;60.672;2023-04-28T03:43:08;97713.38;;;22.53;32.23
62524;BME280;53689;56.878;60.672;2023-04-28T03:45:53;97717.47;;;22.16;33.45
62524;BME280;53689;56.878;60.672;2023-04-28T03:48:20;97724.03;;;22.34;33.22
62524;BME280;53689;56.878;60.672;2023-04-28T03:50:48;97723.59;;;22.69;32.34
62524;BME280;53689;56.878;60.672;2023-04-28T03:53:16;97727.56;;;22.67;32.96
62524;BME280;53689;56.878;60.672;2023-04-28T03:55:44;97737.34;;;22.61;32.31
62524;BME280;53689;56.878;60.672;2023-04-28T03:58:13;97735.63;;;22.35;33.83
62524;BME280;53689;56.878;60.672;2023-04-28T04:00:41;97737.75;;;22.26;34.41
62524;BME280;53689;56.878;60.672;2023-04-28T04:03:08;97741.75;;;22.16;34.23
62524;BME280;53689;56.878;60.672;2023-04-28T04:05:38;97739.56;;;22.32;32.75
62524;BME280;53689;56.878;60.672;2023-04-28T04:08:07;97744.16;;;22.31;34.05
62524;BME280;53689;56.878;60.672;2023-04-28T04:10:35;97752.41;;;21.91;34.72
62524;BME280;53689;56.878;60.672;2023-04-28T04:13:02;97753.47;;;21.56;35.42
62524;BME280;53689;56.878;60.672;2023-04-28T04:15:31;97753.84;;;21.87;34.58
62524;BME280;53689;56.878;60.672;2023-04-28T04:17:59;97757.22;;;21.75;35.23
62524;BME280;53689;56.878;60.672;2023-04-28T04:20:35;97763.81;;;21.93;34.67
62524;BME280;53689;56.878;60.672;2023-04-28T04:23:03;97765.84;;;22.04;34.36
62524;BME280;53689;56.878;60.672;2023-04-28T04:25:31;97774.75;;;21.98;34.54
62524;BME280;53689;56.878;60.672;2023-04-28T04:27:59;97780.88;;;21.19;36.42
62524;BME280;53689;56.878;60.672;2023-04-28T04:30:27;97786.25;;;21.06;36.93
62524;BME280;53689;56.878;60.672;2023-04-28T04:32:56;97800.72;;;21.32;36.34
62524;BME280;53689;56.878;60.672;2023-04-28T04:35:24;97790.19;;;21.10;36.99
62524;BME280;53689;56.878;60.672;2023-04-28T04:37:52;97798.47;;;21.49;36.41
62524;BME280;53689;56.878;60.672;2023-04-28T04:40:20;97806.53;;;21.56;36.35
62524;BME280;53689;56.878;60.672;2023-04-28T04:42:49;97807.72;;;22.00;34.72
62524;BME280;53689;56.878;60.672;2023-04-28T04:45:18;97811.50;;;21.39;36.93
62524;BME280;53689;56.878;60.672;2023-04-28T04:47:46;97820.41;;;21.93;35.57
62524;BME280;53689;56.878;60.672;2023-04-28T04:50:15;97820.28;;;22.34;34.68
62524;BME280;53689;56.878;60.672;2023-04-28T04:52:44;97828.91;;;21.97;35.69
62524;BME280;53689;56.878;60.672;2023-04-28T04:55:12;97828.88;;;22.03;35.48
62524;BME280;53689;56.878;60.672;2023-04-28T04:57:40;97835.78;;;22.45;34.99
62524;BME280;53689;56.878;60.672;2023-04-28T05:00:15;97841.16;;;21.72;36.37
62524;BME280;53689;56.878;60.672;2023-04-28T05:02:42;97844.41;;;22.08;35.83
62524;BME280;53689;56.878;60.672;2023-04-28T05:05:12;97854.41;;;21.87;36.35
62524;BME280;53689;56.878;60.672;2023-04-28T05:08:06;97863.13;;;21.83;36.16
62524;BME280;53689;56.878;60.672;2023-04-28T05:10:34;97883.78;;;21.28;37.75
62524;BME280;53689;56.878;60.672;2023-04-28T05:13:03;97891.47;;;20.27;39.70
62524;BME280;53689;56.878;60.672;2023-04-28T05:15:30;97910.50;;;20.68;38.08
62524;BME280;53689;56.878;60.672;2023-04-28T05:18:13;97902.03;;;20.71;37.57
62524;BME280;53689;56.878;60.672;2023-04-28T05:20:41;97905.56;;;21.47;35.92
62524;BME280;53689;56.878;60.672;2023-04-28T05:23:12;97906.19;;;22.10;34.66
62524;BME280;53689;56.878;60.672;2023-04-28T05:25:39;97910.75;;;22.16;34.61
62524;BME280;53689;56.878;60.672;2023-04-28T05:28:08;97924.06;;;21.90;35.23
62524;BME280;53689;56.878;60.672;2023-04-28T05:30:36;97931.03;;;21.31;36.27
62524;BME280;53689;56.878;60.672;2023-04-28T05:33:04;97937.03;;;22.54;33.63
62524;BME280;53689;56.878;60.672;2023-04-28T05:35:32;97932.97;;;22.91;32.53
62524;BME280;53689;56.878;60.672;2023-04-28T05:37:59;97938.44;;;22.70;33.46
62524;BME280;53689;56.878;60.672;2023-04-28T05:40:29;97944.97;;;22.95;32.33
62524;BME280;53689;56.878;60.672;2023-04-28T05:42:56;97956.50;;;22.70;33.04
62524;BME280;53689;56.878;60.672;2023-04-28T05:45:24;97954.94;;;23.01;32.97
62524;BME280;53689;56.878;60.672;2023-04-28T05:47:54;97958.97;;;22.78;32.85
62524;BME280;53689;56.878;60.672;2023-04-28T05:50:22;97974.13;;;22.79;32.81
62524;BME280;53689;56.878;60.672;2023-04-28T05:52:50;97974.19;;;22.52;32.91
62524;BME280;53689;56.878;60.672;2023-04-28T05:55:18;97975.34;;;22.83;32.24
62524;BME280;53689;56.878;60.672;2023-04-28T05:57:47;97976.59;;;22.88;32.18
62524;BME280;53689;56.878;60.672;2023-04-28T06:00:20;97981.94;;;23.01;31.92
62524;BME280;53689;56.878;60.672;2023-04-28T06:02:48;97989.06;;;22.75;32.33
62524;BME280;53689;56.878;60.672;2023-04-28T06:05:16;97997.63;;;22.45;33.05
62524;BME280;53689;56.878;60.672;2023-04-28T06:07:45;98000.94;;;22.47;32.97
62524;BME280;53689;56.878;60.672;2023-04-28T06:10:16;97995.56;;;22.61;32.28
62524;BME280;53689;56.878;60.672;2023-04-28T06:12:45;97999.03;;;22.81;32.19
62524;BME280;53689;56.878;60.672;2023-04-28T06:15:14;97993.44;;;22.76;32.75
62524;BME280;53689;56.878;60.672;2023-04-28T06:17:41;97995.34;;;22.69;32.58
62524;BME280;53689;56.878;60.672;2023-04-28T06:20:10;97994.53;;;22.55;32.37
62524;BME280;53689;56.878;60.672;2023-04-28T06:22:37;98007.34;;;22.73;31.90
62524;BME280;53689;56.878;60.672;2023-04-28T06:25:06;98008.97;;;22.94;31.50
62524;BME280;53689;56.878;60.672;2023-04-28T06:27:44;98015.34;;;23.07;31.26
62524;BME280;53689;56.878;60.672;2023-04-28T06:30:16;98021.34;;;23.09;31.43
62524;BME280;53689;56.878;60.672;2023-04-28T06:32:44;98029.22;;;23.17;30.71
62524;BME280;53689;56.878;60.672;2023-04-28T06:35:12;98032.84;;;23.50;30.96
62524;BME280;53689;56.878;60.672;2023-04-28T06:37:39;98039.47;;;23.54;30.26
62524;BME280;53689;56.878;60.672;2023-04-28T06:40:08;98047.59;;;23.47;31.23
62524;BME280;53689;56.878;60.672;2023-04-28T06:42:40;98046.75;;;23.53;30.62
62524;BME280;53689;56.878;60.672;2023-04-28T06:45:11;98052.16;;;23.53;30.13
62524;BME280;53689;56.878;60.672;2023-04-28T06:47:40;98054.66;;;23.87;29.66
62524;BME280;53689;56.878;60.672;2023-04-28T06:50:09;98062.19;;;23.39;30.54
62524;BME280;53689;56.878;60.672;2023-04-28T06:52:37;98058.28;;;23.28;30.99
62524;BME280;53689;56.878;60.672;2023-04-28T06:55:07;98064.09;;;23.25;30.75
62524;BME280;53689;56.878;60.672;2023-04-28T06:57:35;98067.03;;;23.24;31.02
62524;BME280;53689;56.878;60.672;2023-04-28T07:00:04;98070.63;;;23.56;30.44
62524;BME280;53689;56.878;60.672;2023-04-28T07:02:32;98065.31;;;23.82;29.55
62524;BME280;53689;56.878;60.672;2023-04-28T07:05:02;98068.31;;;23.60;29.50
62524;BME280;53689;56.878;60.672;2023-04-28T07:07:30;98065.34;;;23.23;30.48
62524;BME280;53689;56.878;60.672;2023-04-28T07:09:58;98076.16;;;23.30;30.73
62524;BME280;53689;56.878;60.672;2023-04-28T07:12:26;98079.00;;;23.41;30.09
62524;BME280;53689;56.878;60.672;2023-04-28T07:14:53;98082.44;;;23.69;30.14
62524;BME280;53689;56.878;60.672;2023-04-28T07:17:21;98083.28;;;23.63;30.29
62524;BME280;53689;56.878;60.672;2023-04-28T07:19:48;98083.44;;;23.75;29.58
62524;BME280;53689;56.878;60.672;2023-04-28T07:22:17;98082.63;;;23.67;29.66
62524;BME280;53689;56.878;60.672;2023-04-28T07:24:45;98087.53;;;23.84;29.77
62524;BME280;53689;56.878;60.672;2023-04-28T07:27:13;98089.69;;;23.68;30.70
62524;BME280;53689;56.878;60.672;2023-04-28T07:29:41;98102.44;;;22.82;31.92
62524;BME280;53689;56.878;60.672;2023-04-28T07:32:08;98097.44;;;22.92;31.29
62524;BME280;53689;56.878;60.672;2023-04-28T07:34:36;98098.84;;;23.08;31.23
62524;BME280;53689;56.878;60.672;2023-04-28T07:37:05;98096.31;;;23.20;30.80
62524;BME280;53689;56.878;60.672;2023-04-28T07:39:35;98097.50;;;23.38;30.26
62524;BME280;53689;56.878;60.672;2023-04-28T07:42:02;98104.41;;;23.27;31.43
62524;BME280;53689;56.878;60.672;2023-04-28T07:44:31;98096.31;;;23.13;31.43
62524;BME280;53689;56.878;60.672;2023-04-28T07:47:00;98105.69;;;23.18;30.85
62524;BME280;53689;56.878;60.672;2023-04-28T07:49:28;98095.09;;;23.09;31.27
62524;BME280;53689;56.878;60.672;2023-04-28T07:51:55;98098.28;;;22.79;31.32
62524;BME280;53689;56.878;60.672;2023-04-28T07:54:24;98100.28;;;23.18;30.81
62524;BME280;53689;56.878;60.672;2023-04-28T07:56:54;98103.78;;;23.18;31.01
62524;BME280;53689;56.878;60.672;2023-04-28T07:59:22;98104.84;;;23.17;30.43
62524;BME280;53689;56.878;60.672;2023-04-28T08:01:50;98108.56;;;23.23;30.48
62524;BME280;53689;56.878;60.672;2023-04-28T08:04:17;98108.56;;;23.23;30.44
62524;BME280;53689;56.878;60.672;2023-04-28T08:06:45;98108.63;;;23.03;30.48
62524;BME280;53689;56.878;60.672;2023-04-28T08:09:13;98108.16;;;23.12;30.92
62524;BME280;53689;56.878;60.672;2023-04-28T08:11:41;98114.81;;;23.17;30.49
62524;BME280;53689;56.878;60.672;2023-04-28T08:14:10;98102.81;;;22.99;30.64
62524;BME280;53689;56.878;60.672;2023-04-28T08:16:37;98110.94;;;22.92;30.39
62524;BME280;53689;56.878;60.672;2023-04-28T08:19:05;98117.38;;;22.78;31.06
62524;BME280;53689;56.878;60.672;2023-04-28T08:21:32;98124.22;;;22.80;30.80
62524;BME280;53689;56.878;60.672;2023-04-28T08:24:00;98127.75;;;22.81;30.18
62524;BME280;53689;56.878;60.672;2023-04-28T08:26:28;98131.03;;;23.10;30.19
62524;BME280;53689;56.878;60.672;2023-04-28T08:28:55;98137.03;;;23.32;29.75
62524;BME280;53689;56.878;60.672;2023-04-28T08:31:24;98139.09;;;23.37;29.74
62524;BME280;53689;56.878;60.672;2023-04-28T08:33:51;98127.88;;;23.26;29.57
62524;BME280;53689;56.878;60.672;2023-04-28T08:36:21;98141.25;;;22.88;30.42
62524;BME280;53689;56.878;60.672;2023-04-28T08:38:48;98130.63;;;22.93;30.25
62524;BME280;53689;56.878;60.672;2023-04-28T08:41:16;98138.53;;;22.94;29.78
62524;BME280;53689;56.878;60.672;2023-04-28T08:43:43;98147.84;;;23.19;29.69
62524;BME280;53689;56.878;60.672;2023-04-28T08:46:13;98142.41;;;23.32;29.08
62524;BME280;53689;56.878;60.672;2023-04-28T08:48:44;98140.38;;;23.34;29.29
62524;BME280;53689;56.878;60.672;2023-04-28T08:51:14;98145.34;;;23.24;29.35
62524;BME280;53689;56.878;60.672;2023-04-28T08:53:44;98139.94;;;23.24;29.61
62524;BME280;53689;56.878;60.672;2023-04-28T08:56:34;98150.97;;;23.02;30.27
62524;BME280;53689;56.878;60.672;2023-04-28T08:59:03;98154.88;;;23.26;30.21
62524;BME280;53689;56.878;60.672;2023-04-28T09:01:31;98160.44;;;23.52;28.73
62524;BME280;53689;56.878;60.672;2023-04-28T09:04:01;98153.69;;;22.95;30.07
62524;BME280;53689;56.878;60.672;2023-04-28T09:06:31;98161.56;;;23.10;29.20
62524;BME280;53689;56.878;60.672;2023-04-28T09:09:17;98157.03;;;22.91;31.84
62524;BME280;53689;56.878;60.672;2023-04-28T09:11:55;98155.78;;;22.73;31.25
62524;BME280;53689;56.878;60.672;2023-04-28T09:14:24;98164.25;;;22.36;31.03
62524;BME280;53689;56.878;60.672;2023-04-28T09:16:53;98158.84;;;22.43;31.30
62524;BME280;53689;56.878;60.672;2023-04-28T09:19:22;98156.22;;;22.70;30.75
62524;BME280;53689;56.878;60.672;2023-04-28T09:21:51;98169.28;;;22.86;30.23
62524;BME280;53689;56.878;60.672;2023-04-28T09:24:27;98172.00;;;22.86;30.52
62524;BME280;53689;56.878;60.672;2023-04-28T09:26:55;98177.16;;;22.88;30.08
62524;BME280;53689;56.878;60.672;2023-04-28T09:29:24;98171.34;;;23.05;29.91
62524;BME280;53689;56.878;60.672;2023-04-28T09:31:52;98168.84;;;23.17;30.28
62524;BME280;53689;56.878;60.672;2023-04-28T09:34:19;98174.84;;;23.32;28.70
62524;BME280;53689;56.878;60.672;2023-04-28T09:36:49;98174.34;;;23.55;28.79
62524;BME280;53689;56.878;60.672;2023-04-28T09:39:27;98182.50;;;23.49;29.05
62524;BME280;53689;56.878;60.672;2023-04-28T09:41:56;98178.78;;;23.43;28.73
62524;BME280;53689;56.878;60.672;2023-04-28T09:44:24;98184.19;;;23.36;29.09
62524;BME280;53689;56.878;60.672;2023-04-28T09:46:52;98180.44;;;23.37;29.10
62524;BME280;53689;56.878;60.672;2023-04-28T09:49:22;98174.84;;;23.32;29.13
62524;BME280;53689;56.878;60.672;2023-04-28T09:51:52;98176.47;;;23.47;28.71
62524;BME280;53689;56.878;60.672;2023-04-28T09:54:20;98180.38;;;23.64;27.73
62524;BME280;53689;56.878;60.672;2023-04-28T09:56:49;98175.00;;;23.58;28.00
62524;BME280;53689;56.878;60.672;2023-04-28T09:59:16;98170.47;;;23.45;28.85
62524;BME280;53689;56.878;60.672;2023-04-28T10:01:44;98178.56;;;23.38;29.07
62524;BME280;53689;56.878;60.672;2023-04-28T10:04:13;98171.09;;;23.40;28.68
62524;BME280;53689;56.878;60.672;2023-04-28T10:06:41;98163.41;;;23.23;29.27
62524;BME280;53689;56.878;60.672;2023-04-28T10:09:11;98165.47;;;23.48;29.04
62524;BME280;53689;56.878;60.672;2023-04-28T10:11:39;98173.69;;;23.74;27.89
62524;BME280;53689;56.878;60.672;2023-04-28T10:14:07;98181.66;;;23.55;28.51
62524;BME280;53689;56.878;60.672;2023-04-28T10:16:34;98188.50;;;23.58;28.56
62524;BME280;53689;56.878;60.672;2023-04-28T10:19:03;98184.16;;;23.50;28.02
62524;BME280;53689;56.878;60.672;2023-04-28T10:21:32;98186.25;;;23.48;28.00
62524;BME280;53689;56.878;60.672;2023-04-28T10:24:08;98194.56;;;23.53;28.13
62524;BME280;53689;56.878;60.672;2023-04-28T10:27:04;98184.13;;;23.63;27.57
62524;BME280;53689;56.878;60.672;2023-04-28T10:29:33;98197.41;;;23.65;27.57
62524;BME280;53689;56.878;60.672;2023-04-28T10:32:18;98193.09;;;23.50;28.02
62524;BME280;53689;56.878;60.672;2023-04-28T10:34:47;98189.31;;;23.58;27.79
62524;BME280;53689;56.878;60.672;2023-04-28T10:37:15;98192.81;;;23.72;27.44
62524;BME280;53689;56.878;60.672;2023-04-28T10:42:54;98189.28;;;23.72;27.23
62524;BME280;53689;56.878;60.672;2023-04-28T10:51:32;98169.13;;;23.67;27.84
62524;BME280;53689;56.878;60.672;2023-04-28T10:54:13;98165.00;;;23.58;27.33
62524;BME280;53689;56.878;60.672;2023-04-28T10:59:44;98156.09;;;23.58;27.84
62524;BME280;53689;56.878;60.672;2023-04-28T11:05:16;98158.78;;;23.58;27.53
62524;BME280;53689;56.878;60.672;2023-04-28T11:11:21;98163.72;;;23.67;27.26
62524;BME280;53689;56.878;60.672;2023-04-28T11:13:49;98160.22;;;23.67;27.50
62524;BME280;53689;56.878;60.672;2023-04-28T11:16:20;98160.78;;;23.76;27.57
62524;BME280;53689;56.878;60.672;2023-04-28T11:18:53;98155.34;;;23.82;26.70
62524;BME280;53689;56.878;60.672;2023-04-28T11:21:24;98154.94;;;23.79;26.51
62524;BME280;53689;56.878;60.672;2023-04-28T11:23:52;98158.28;;;23.74;27.02
62524;BME280;53689;56.878;60.672;2023-04-28T11:26:20;98153.72;;;23.75;27.10
62524;BME280;53689;56.878;60.672;2023-04-28T11:28:49;98150.97;;;23.81;26.76
62524;BME280;53689;56.878;60.672;2023-04-28T11:31:18;98153.88;;;23.80;26.50
62524;BME280;53689;56.878;60.672;2023-04-28T11:33:49;98158.03;;;23.82;27.26
62524;BME280;53689;56.878;60.672;2023-04-28T11:36:25;98163.84;;;23.86;27.19
62524;BME280;53689;56.878;60.672;2023-04-28T11:38:53;98159.31;;;23.73;27.10
62524;BME280;53689;56.878;60.672;2023-04-28T11:41:21;98152.63;;;23.30;28.13
62524;BME280;53689;56.878;60.672;2023-04-28T11:43:49;98157.19;;;23.09;28.54
62524;BME280;53689;56.878;60.672;2023-04-28T11:46:19;98149.34;;;22.94;28.81
62524;BME280;53689;56.878;60.672;2023-04-28T11:48:47;98164.03;;;23.19;28.56
62524;BME280;53689;56.878;60.672;2023-04-28T11:51:37;98154.13;;;22.79;28.40
62524;BME280;53689;56.878;60.672;2023-04-28T11:54:05;98154.66;;;23.41;27.52
62524;BME280;53689;56.878;60.672;2023-04-28T11:56:37;98151.13;;;23.48;27.54
62524;BME280;53689;56.878;60.672;2023-04-28T11:59:06;98150.84;;;23.63;27.26
62524;BME280;53689;56.878;60.672;2023-04-28T12:01:44;98151.25;;;23.66;27.76
62524;BME280;53689;56.878;60.672;2023-04-28T12:04:12;98149.94;;;23.82;26.24
62524;BME280;53689;56.878;60.672;2023-04-28T12:06:40;98145.59;;;23.75;27.12
62524;BME280;53689;56.878;60.672;2023-04-28T12:09:15;98146.63;;;23.80;26.68
62524;BME280;53689;56.878;60.672;2023-04-28T12:11:56;98145.38;;;23.83;26.87
62524;BME280;53689;56.878;60.672;2023-04-28T12:14:24;98147.84;;;23.84;27.11
62524;BME280;53689;56.878;60.672;2023-04-28T12:16:53;98139.91;;;23.90;26.17
62524;BME280;53689;56.878;60.672;2023-04-28T12:19:21;98139.06;;;23.89;26.76
62524;BME280;53689;56.878;60.672;2023-04-28T12:21:59;98132.47;;;23.85;26.65
62524;BME280;53689;56.878;60.672;2023-04-28T12:24:27;98136.22;;;23.84;26.06
62524;BME280;53689;56.878;60.672;2023-04-28T12:27:12;98134.47;;;23.96;26.03
62524;BME280;53689;56.878;60.672;2023-04-28T12:29:42;98133.03;;;23.94;25.79
62524;BME280;53689;56.878;60.672;2023-04-28T12:32:12;98126.47;;;24.15;26.10
62524;BME280;53689;56.878;60.672;2023-04-28T12:34:39;98125.28;;;24.04;26.52
62524;BME280;53689;56.878;60.672;2023-04-28T12:37:07;98128.41;;;24.08;25.65
62524;BME280;53689;56.878;60.672;2023-04-28T12:39:35;98122.72;;;24.16;25.38
62524;BME280;53689;56.878;60.672;2023-04-28T12:42:06;98114.28;;;24.06;25.71
62524;BME280;53689;56.878;60.672;2023-04-28T12:44:34;98118.44;;;24.02;26.19
62524;BME280;53689;56.878;60.672;2023-04-28T12:47:03;98115.72;;;24.08;25.64
62524;BME280;53689;56.878;60.672;2023-04-28T12:49:32;98120.91;;;24.03;26.11
62524;BME280;53689;56.878;60.672;2023-04-28T12:52:00;98118.25;;;23.96;26.74
62524;BME280;53689;56.878;60.672;2023-04-28T12:54:27;98111.59;;;23.99;26.12
62524;BME280;53689;56.878;60.672;2023-04-28T12:56:55;98117.59;;;24.01;25.57
62524;BME280;53689;56.878;60.672;2023-04-28T12:59:23;98118.69;;;23.93;26.08
62524;BME280;53689;56.878;60.672;2023-04-28T13:01:50;98129.31;;;23.88;27.16
62524;BME280;53689;56.878;60.672;2023-04-28T13:04:18;98121.13;;;24.02;25.87
62524;BME280;53689;56.878;60.672;2023-04-28T13:06:48;98119.94;;;23.91;25.71
62524;BME280;53689;56.878;60.672;2023-04-28T13:09:15;98120.84;;;23.78;26.83
62524;BME280;53689;56.878;60.672;2023-04-28T13:11:43;98124.44;;;23.72;27.37
62524;BME280;53689;56.878;60.672;2023-04-28T13:14:10;98124.78;;;23.82;26.57
62524;BME280;53689;56.878;60.672;2023-04-28T13:16:38;98127.66;;;23.87;26.68
62524;BME280;53689;56.878;60.672;2023-04-28T13:19:05;98115.59;;;23.90;26.27
62524;BME280;53689;56.878;60.672;2023-04-28T13:21:33;98112.22;;;23.94;25.75